Terminal Aerodrome Forecast
Issued by NWS Greer, SC

Home | Current Version | Previous Version | Text Only | Print | Product List | Glossary On
Versions: 1 2 3 4 5 6 7 8 9 10 11 12 13 14 15 16 17 18 19 20 21
000
FTUS42 KGSP 251734
TAFCLT
TAF
KCLT 251734Z 2518/2618 06003KT P6SM SCT045
     FM252300 10006KT P6SM VCSH BKN045
      TEMPO 2523/2602 4SM -TSRA OVC025CB
     FM260200 10006KT P6SM -SHRA BKN025 PROB30 2603/2608 4SM -TSRA
      OVC007CB
     FM260800 10004KT 5SM BR VCSH OVC003
     FM261600 16004KT P6SM BKN025=

USA.gov is the U.S. government's official web portal to all federal, state and local government web resources and services.